^^
Station Historical Data
Daily Summary for January 3, 2018 Units:  Both    English   Metric
« Previous Day
Next Day »
Daily Weekly Monthly Yearly Custom
  High: Low: Average:
Temperature: TemperatureC °F /  -17.8 °C 1.2 °F /  -17.1 °C 2.5 °F /  -16.4 °C
Dew Point: DewpointC °F /  -17.8 °C 0.2 °F /  -17.7 °C 1.5 °F /  -16.9 °C
Humidity: Humidity% 93% 93%
Wind Speed: WindSpeedKMHmph /  0km/h - 1.4mph /  2.3km/h
Wind Gust: WindSpeedGustKMHmph /  0km/h - -
Wind- - SSE
Pressure: PressurehPa in /  0 hPa 998.2 in /  33799.1 hPa -
Precipitation: 2.8 in /  71.12 mm    
Historical Graphs
 
 
Tabular Data for January 3, 2018
Time Temperature Dew Point Pressure Wind Wind Speed Wind Gust Humidity Rainfall Rate (Hourly) solar Conditions
TemperatureC °F /  -17.8 °C DewpointC °F /  -17.8 °C PressurehPain /  0hPa Calm     Humidity% HourlyPrecipMMin /  0mm SoftwareType W/m2 Conditions
00:04 3.3 °F /  -15.9 °C 2.3 °F /  -16.5 °C 1000.9in /  33890.5hPa South 1.0mph /  1.6km/h   93% 0.0in /  0mm WeatherDisplay:10.37 W/m2 RA
00:09 3.3 °F /  -15.9 °C 2.3 °F /  -16.5 °C 1000.9in /  33890.5hPa SW 3.9mph /  6.3km/h 8.0mph /  12.9km/h 93% 0.0in /  0mm WeatherDisplay:10.37 W/m2 RA
00:14 3.3 °F /  -15.9 °C 2.3 °F /  -16.5 °C 1000.9in /  33890.5hPa Calm   5.6mph /  9km/h 93% 0.0in /  0mm WeatherDisplay:10.37 W/m2 FEW
00:17 3.4 °F /  -15.9 °C 2.4 °F /  -16.4 °C 1000.9in /  33890.5hPa SSW 1.6mph /  2.6km/h 5.6mph /  9km/h 93% 0.0in /  0mm WeatherDisplay:10.37 W/m2 FEW
00:21 3.4 °F /  -15.9 °C 2.4 °F /  -16.4 °C 1000.9in /  33890.5hPa Calm     93% 0.0in /  0mm WeatherDisplay:10.37 W/m2 FEW
00:26 3.4 °F /  -15.9 °C 2.4 °F /  -16.4 °C 1000.9in /  33890.5hPa SSW 0.5mph /  0.8km/h 9.3mph /  15km/h 93% 0.0in /  0mm WeatherDisplay:10.37 W/m2 FEW
00:29 3.4 °F /  -15.9 °C 2.4 °F /  -16.4 °C 1000.9in /  33890.5hPa South 2.3mph /  3.7km/h 5.6mph /  9km/h 93% 0.0in /  0mm WeatherDisplay:10.37 W/m2 FEW
00:34 3.4 °F /  -15.9 °C 2.4 °F /  -16.4 °C 1000.9in /  33890.5hPa SE 4.0mph /  6.4km/h 11.1mph /  17.9km/h 93% 0.0in /  0mm WeatherDisplay:10.37 W/m2 FEW
00:39 3.4 °F /  -15.9 °C 2.4 °F /  -16.4 °C 1000.9in /  33890.5hPa SSW 1.6mph /  2.6km/h 3.7mph /  6km/h 93% 0.0in /  0mm WeatherDisplay:10.37 W/m2 FEW
00:44 3.4 °F /  -15.9 °C 2.4 °F /  -16.4 °C 1000.9in /  33890.5hPa Calm     93% 0.0in /  0mm WeatherDisplay:10.37 W/m2 FEW
00:49 3.4 °F /  -15.9 °C 2.4 °F /  -16.4 °C 1000.9in /  33890.5hPa SW 1.0mph /  1.6km/h 13.0mph /  20.9km/h 93% 0.0in /  0mm WeatherDisplay:10.37 W/m2 FEW
00:51 3.3 °F /  -15.9 °C 2.3 °F /  -16.5 °C 1000.9in /  33890.5hPa Calm   1.9mph /  3.1km/h 93% 0.0in /  0mm WeatherDisplay:10.37 W/m2 FEW
00:52 3.3 °F /  -15.9 °C 2.3 °F /  -16.5 °C 1000.9in /  33890.5hPa Calm     93% 0.0in /  0mm WeatherDisplay:10.37 W/m2 FEW
00:57 3.3 °F /  -15.9 °C 2.3 °F /  -16.5 °C 1000.9in /  33890.5hPa SSE 7.2mph /  11.6km/h 13.0mph /  20.9km/h 93% 0.0in /  0mm WeatherDisplay:10.37 W/m2 FEW
01:00 3.4 °F /  -15.9 °C 2.4 °F /  -16.4 °C 1000.9in /  33890.5hPa SSE 2.4mph /  3.9km/h 7.4mph /  11.9km/h 93% 0.0in /  0mm WeatherDisplay:10.37 W/m2 FEW
01:03 3.4 °F /  -15.9 °C 2.4 °F /  -16.4 °C 1000.9in /  33890.5hPa East 3.2mph /  5.1km/h 14.8mph /  23.8km/h 93% 0.0in /  0mm WeatherDisplay:10.37 W/m2 FEW
01:06 3.4 °F /  -15.9 °C 2.4 °F /  -16.4 °C 1000.9in /  33890.5hPa SE 0.8mph /  1.3km/h 11.3mph /  18.2km/h 93% 0.0in /  0mm WeatherDisplay:10.37 W/m2 FEW
01:08 3.4 °F /  -15.9 °C 2.4 °F /  -16.4 °C 1000.9in /  33890.5hPa Calm     93% 0.0in /  0mm WeatherDisplay:10.37 W/m2 FEW
01:13 3.3 °F /  -15.9 °C 2.3 °F /  -16.5 °C 1000.9in /  33890.5hPa SE 7.1mph /  11.4km/h 16.1mph /  25.9km/h 93% 0.0in /  0mm WeatherDisplay:10.37 W/m2 FEW
01:15 3.4 °F /  -15.9 °C 2.4 °F /  -16.4 °C 1000.9in /  33890.5hPa SE 6.6mph /  10.6km/h 20.4mph /  32.8km/h 93% 0.0in /  0mm WeatherDisplay:10.37 W/m2 FEW
01:20 3.4 °F /  -15.9 °C 2.4 °F /  -16.4 °C 1000.9in /  33890.5hPa WSW 0.6mph /  1km/h 7.4mph /  11.9km/h 93% 0.0in /  0mm WeatherDisplay:10.37 W/m2 FEW
01:25 3.4 °F /  -15.9 °C 2.4 °F /  -16.4 °C 1000.9in /  33890.5hPa WSW 1.9mph /  3.1km/h 9.3mph /  15km/h 93% 0.0in /  0mm WeatherDisplay:10.37 W/m2 FEW
01:30 3.4 °F /  -15.9 °C 2.4 °F /  -16.4 °C 1000.9in /  33890.5hPa Calm   3.7mph /  6km/h 93% 0.3in /  7.62mm WeatherDisplay:10.37 W/m2 RA
01:35 3.4 °F /  -15.9 °C 2.4 °F /  -16.4 °C 1000.9in /  33890.5hPa Calm   5.6mph /  9km/h 93% 0.3in /  7.62mm WeatherDisplay:10.37 W/m2 RA
01:40 3.4 °F /  -15.9 °C 2.4 °F /  -16.4 °C 1000.9in /  33890.5hPa East 0.6mph /  1km/h 5.6mph /  9km/h 93% 0.3in /  7.62mm WeatherDisplay:10.37 W/m2 FEW
01:45 3.4 °F /  -15.9 °C 2.4 °F /  -16.4 °C 1000.9in /  33890.5hPa Calm   7.4mph /  11.9km/h 93% 0.3in /  7.62mm WeatherDisplay:10.37 W/m2 FEW
01:50 3.4 °F /  -15.9 °C 2.4 °F /  -16.4 °C 1000.9in /  33890.5hPa SSE 2.7mph /  4.3km/h 9.3mph /  15km/h 93% 0.3in /  7.62mm WeatherDisplay:10.37 W/m2 FEW
01:51 3.4 °F /  -15.9 °C 2.4 °F /  -16.4 °C 1000.9in /  33890.5hPa SSE 2.4mph /  3.9km/h 11.1mph /  17.9km/h 93% 0.3in /  7.62mm WeatherDisplay:10.37 W/m2 FEW
01:56 3.4 °F /  -15.9 °C 2.4 °F /  -16.4 °C 1000.9in /  33890.5hPa East 2.3mph /  3.7km/h 5.6mph /  9km/h 93% 0.3in /  7.62mm WeatherDisplay:10.37 W/m2 FEW
02:01 3.4 °F /  -15.9 °C 2.4 °F /  -16.4 °C 1000.9in /  33890.5hPa South 2.7mph /  4.3km/h 18.5mph /  29.8km/h 93% 0.3in /  7.62mm WeatherDisplay:10.37 W/m2 FEW
02:06 3.4 °F /  -15.9 °C 2.4 °F /  -16.4 °C 1000.9in /  33890.5hPa ENE 0.6mph /  1km/h   93% 0.3in /  7.62mm WeatherDisplay:10.37 W/m2 FEW
02:11 3.4 °F /  -15.9 °C 2.4 °F /  -16.4 °C 1000.9in /  33890.5hPa SSW 2.6mph /  4.2km/h 7.4mph /  11.9km/h 93% 0.3in /  7.62mm WeatherDisplay:10.37 W/m2 FEW
02:16 3.4 °F /  -15.9 °C 2.4 °F /  -16.4 °C 1000.9in /  33890.5hPa South 3.9mph /  6.3km/h 14.8mph /  23.8km/h 93% 0.3in /  7.62mm WeatherDisplay:10.37 W/m2 FEW
02:19 3.4 °F /  -15.9 °C 2.4 °F /  -16.4 °C 1000.9in /  33890.5hPa SSW 0.5mph /  0.8km/h 5.6mph /  9km/h 93% 0.3in /  7.62mm WeatherDisplay:10.37 W/m2 FEW
02:24 3.4 °F /  -15.9 °C 2.4 °F /  -16.4 °C 1000.9in /  33890.5hPa South 1.4mph /  2.3km/h 5.6mph /  9km/h 93% 0.3in /  7.62mm WeatherDisplay:10.37 W/m2 FEW
02:29 3.3 °F /  -15.9 °C 2.3 °F /  -16.5 °C 1000.9in /  33890.5hPa Calm     93% 0.0in /  0mm WeatherDisplay:10.37 W/m2 FEW
02:33 3.3 °F /  -15.9 °C 2.3 °F /  -16.5 °C 1000.9in /  33890.5hPa South 6.0mph /  9.7km/h 16.7mph /  26.9km/h 93% 0.0in /  0mm WeatherDisplay:10.37 W/m2 FEW
02:39 3.3 °F /  -15.9 °C 2.3 °F /  -16.5 °C 1001.2in /  33900.6hPa South 6.8mph /  10.9km/h 13.0mph /  20.9km/h 93% 0.0in /  0mm WeatherDisplay:10.37 W/m2 FEW
02:40 3.3 °F /  -15.9 °C 2.3 °F /  -16.5 °C 1001.2in /  33900.6hPa SW 2.7mph /  4.3km/h 14.8mph /  23.8km/h 93% 0.0in /  0mm WeatherDisplay:10.37 W/m2 FEW
02:45 3.3 °F /  -15.9 °C 2.3 °F /  -16.5 °C 1000.9in /  33890.5hPa WSW 0.2mph /  0.3km/h 6.4mph /  10.3km/h 93% 0.0in /  0mm WeatherDisplay:10.37 W/m2 FEW
02:48 3.4 °F /  -15.9 °C 2.4 °F /  -16.4 °C 1000.9in /  33890.5hPa West 5.5mph /  8.9km/h 9.3mph /  15km/h 93% 0.0in /  0mm WeatherDisplay:10.37 W/m2 FEW
02:53 3.3 °F /  -15.9 °C 2.3 °F /  -16.5 °C 1001.2in /  33900.6hPa SSW 6.9mph /  11.1km/h 11.1mph /  17.9km/h 93% 0.0in /  0mm WeatherDisplay:10.37 W/m2 FEW
02:58 3.3 °F /  -15.9 °C 2.3 °F /  -16.5 °C 1001.2in /  33900.6hPa SSW 4.2mph /  6.8km/h 11.1mph /  17.9km/h 93% 0.0in /  0mm WeatherDisplay:10.37 W/m2 FEW
03:03 3.3 °F /  -15.9 °C 2.3 °F /  -16.5 °C 1001.2in /  33900.6hPa Calm   5.6mph /  9km/h 93% 0.0in /  0mm WeatherDisplay:10.37 W/m2 FEW
03:04 3.3 °F /  -15.9 °C 2.3 °F /  -16.5 °C 1001.2in /  33900.6hPa NNW 2.1mph /  3.4km/h 4.8mph /  7.7km/h 93% 0.0in /  0mm WeatherDisplay:10.37 W/m2 FEW
03:10 3.3 °F /  -15.9 °C 2.4 °F /  -16.4 °C 1001.2in /  33900.6hPa Calm     94% 0.0in /  0mm WeatherDisplay:10.37 W/m2 FEW
03:11 3.3 °F /  -15.9 °C 2.4 °F /  -16.4 °C 1001.2in /  33900.6hPa Calm     94% 0.0in /  0mm WeatherDisplay:10.37 W/m2 FEW
03:17 3.3 °F /  -15.9 °C 2.4 °F /  -16.4 °C 1000.9in /  33890.5hPa South 5.3mph /  8.5km/h 16.7mph /  26.9km/h 94% 0.0in /  0mm WeatherDisplay:10.37 W/m2 FEW
03:22 3.3 °F /  -15.9 °C 2.4 °F /  -16.4 °C 1000.9in /  33890.5hPa SSW 3.7mph /  6km/h 11.1mph /  17.9km/h 94% 0.0in /  0mm WeatherDisplay:10.37 W/m2 FEW
03:27 3.3 °F /  -15.9 °C 2.4 °F /  -16.4 °C 1000.9in /  33890.5hPa SE 4.5mph /  7.2km/h 8.0mph /  12.9km/h 94% 0.0in /  0mm WeatherDisplay:10.37 W/m2 FEW
03:28 3.3 °F /  -15.9 °C 2.4 °F /  -16.4 °C 1001.2in /  33900.6hPa SE 4.5mph /  7.2km/h 14.8mph /  23.8km/h 94% 0.0in /  0mm WeatherDisplay:10.37 W/m2 FEW
03:34 3.3 °F /  -15.9 °C 2.4 °F /  -16.4 °C 1000.9in /  33890.5hPa Calm     94% 0.0in /  0mm WeatherDisplay:10.37 W/m2 FEW
03:37 3.2 °F /  -16 °C 2.3 °F /  -16.5 °C 1000.9in /  33890.5hPa NNW 1.9mph /  3.1km/h 5.6mph /  9km/h 94% 0.0in /  0mm WeatherDisplay:10.37 W/m2 FEW
03:42 3.3 °F /  -15.9 °C 2.4 °F /  -16.4 °C 1000.9in /  33890.5hPa East 7.7mph /  12.4km/h 18.5mph /  29.8km/h 94% 0.0in /  0mm WeatherDisplay:10.37 W/m2 FEW
03:44 3.3 °F /  -15.9 °C 2.4 °F /  -16.4 °C 1000.9in /  33890.5hPa South 5.8mph /  9.3km/h 11.3mph /  18.2km/h 94% 0.0in /  0mm WeatherDisplay:10.37 W/m2 FEW
03:49 3.3 °F /  -15.9 °C 2.3 °F /  -16.5 °C 1000.9in /  33890.5hPa South 0.3mph /  0.5km/h 9.7mph /  15.6km/h 93% 0.0in /  0mm WeatherDisplay:10.37 W/m2 FEW
03:54 3.3 °F /  -15.9 °C 2.4 °F /  -16.4 °C 1000.9in /  33890.5hPa SW 4.2mph /  6.8km/h 7.4mph /  11.9km/h 94% 0.0in /  0mm WeatherDisplay:10.37 W/m2 FEW
03:59 3.3 °F /  -15.9 °C 2.4 °F /  -16.4 °C 1000.9in /  33890.5hPa SSE 3.4mph /  5.5km/h 9.3mph /  15km/h 94% 0.0in /  0mm WeatherDisplay:10.37 W/m2 FEW
04:01 3.3 °F /  -15.9 °C 2.4 °F /  -16.4 °C 1000.9in /  33890.5hPa South 3.1mph /  5km/h 9.7mph /  15.6km/h 94% 0.0in /  0mm WeatherDisplay:10.37 W/m2 FEW
04:06 3.3 °F /  -15.9 °C 2.3 °F /  -16.5 °C 1000.9in /  33890.5hPa Calm   1.9mph /  3.1km/h 93% 0.0in /  0mm WeatherDisplay:10.37 W/m2 FEW
04:08 3.3 °F /  -15.9 °C 2.3 °F /  -16.5 °C 1000.9in /  33890.5hPa Calm     93% 0.0in /  0mm WeatherDisplay:10.37 W/m2 FEW
04:14 3.3 °F /  -15.9 °C 2.4 °F /  -16.4 °C 1000.9in /  33890.5hPa NNE 2.1mph /  3.4km/h 5.6mph /  9km/h 94% 0.0in /  0mm WeatherDisplay:10.37 W/m2 FEW
04:19 3.3 °F /  -15.9 °C 2.4 °F /  -16.4 °C 1000.9in /  33890.5hPa SW 0.2mph /  0.3km/h 3.2mph /  5.1km/h 94% 0.0in /  0mm WeatherDisplay:10.37 W/m2 FEW
04:20 3.3 °F /  -15.9 °C 2.4 °F /  -16.4 °C 1000.6in /  33880.3hPa SW 0.6mph /  1km/h 3.7mph /  6km/h 94% 0.0in /  0mm WeatherDisplay:10.37 W/m2 FEW
04:21 3.3 °F /  -15.9 °C 2.4 °F /  -16.4 °C 1000.6in /  33880.3hPa SSW 1.0mph /  1.6km/h 4.8mph /  7.7km/h 94% 0.0in /  0mm WeatherDisplay:10.37 W/m2 FEW
04:26 3.2 °F /  -16 °C 2.3 °F /  -16.5 °C 1000.9in /  33890.5hPa South 1.0mph /  1.6km/h 9.3mph /  15km/h 94% 0.0in /  0mm WeatherDisplay:10.37 W/m2 FEW
04:32 3.2 °F /  -16 °C 2.3 °F /  -16.5 °C 1000.9in /  33890.5hPa SSE 2.6mph /  4.2km/h 7.4mph /  11.9km/h 94% 0.3in /  7.62mm WeatherDisplay:10.37 W/m2 RA
04:37 3.2 °F /  -16 °C 2.2 °F /  -16.6 °C 1000.9in /  33890.5hPa South 0.3mph /  0.5km/h 5.6mph /  9km/h 93% 0.3in /  7.62mm WeatherDisplay:10.37 W/m2 FEW
04:42 3.2 °F /  -16 °C 2.3 °F /  -16.5 °C 1000.6in /  33880.3hPa NNW 0.8mph /  1.3km/h 5.6mph /  9km/h 94% 0.5in /  12.7mm WeatherDisplay:10.37 W/m2 RA
04:46 3.1 °F /  -16.1 °C 2.2 °F /  -16.6 °C 1000.9in /  33890.5hPa Calm   3.7mph /  6km/h 94% 0.5in /  12.7mm WeatherDisplay:10.37 W/m2 RA
04:51 3.1 °F /  -16.1 °C 2.1 °F /  -16.6 °C 1000.6in /  33880.3hPa SE 2.6mph /  4.2km/h 5.6mph /  9km/h 93% 0.5in /  12.7mm WeatherDisplay:10.37 W/m2 FEW
04:56 3.1 °F /  -16.1 °C 2.1 °F /  -16.6 °C 1000.6in /  33880.3hPa SE 0.6mph /  1km/h 7.4mph /  11.9km/h 93% 0.5in /  12.7mm WeatherDisplay:10.37 W/m2 FEW
05:01 3.1 °F /  -16.1 °C 2.1 °F /  -16.6 °C 1000.6in /  33880.3hPa Calm   5.6mph /  9km/h 93% 0.5in /  12.7mm WeatherDisplay:10.37 W/m2 FEW
05:02 3.1 °F /  -16.1 °C 2.1 °F /  -16.6 °C 1000.6in /  33880.3hPa Calm     93% 0.5in /  12.7mm WeatherDisplay:10.37 W/m2 FEW
05:07 3.1 °F /  -16.1 °C 2.1 °F /  -16.6 °C 1000.6in /  33880.3hPa NE 0.8mph /  1.3km/h 5.6mph /  9km/h 93% 0.5in /  12.7mm WeatherDisplay:10.37 W/m2 RA
05:10 3.1 °F /  -16.1 °C 2.1 °F /  -16.6 °C 1000.6in /  33880.3hPa Calm     93% 0.5in /  12.7mm WeatherDisplay:10.37 W/m2 RA
05:16 3.1 °F /  -16.1 °C 2.1 °F /  -16.6 °C 1000.6in /  33880.3hPa South 2.6mph /  4.2km/h 11.1mph /  17.9km/h 93% 0.5in /  12.7mm WeatherDisplay:10.37 W/m2 FEW
05:21 3.1 °F /  -16.1 °C 2.1 °F /  -16.6 °C 1000.6in /  33880.3hPa South 1.4mph /  2.3km/h 9.7mph /  15.6km/h 93% 0.5in /  12.7mm WeatherDisplay:10.37 W/m2 FEW
05:26 3.1 °F /  -16.1 °C 2.1 °F /  -16.6 °C 1000.6in /  33880.3hPa SSE 0.8mph /  1.3km/h 9.7mph /  15.6km/h 93% 0.5in /  12.7mm WeatherDisplay:10.37 W/m2 FEW
05:32 3.1 °F /  -16.1 °C 2.1 °F /  -16.6 °C 1000.6in /  33880.3hPa South 2.3mph /  3.7km/h 7.4mph /  11.9km/h 93% 0.5in /  12.7mm WeatherDisplay:10.37 W/m2 RA
05:37 3.1 °F /  -16.1 °C 2.1 °F /  -16.6 °C 1000.6in /  33880.3hPa South 3.7mph /  6km/h 14.8mph /  23.8km/h 93% 0.8in /  20.32mm WeatherDisplay:10.37 W/m2 RA
05:42 3.1 °F /  -16.1 °C 2.1 °F /  -16.6 °C 1000.6in /  33880.3hPa SW 4.5mph /  7.2km/h 11.1mph /  17.9km/h 93% 0.8in /  20.32mm WeatherDisplay:10.37 W/m2 RA
05:47 3.0 °F /  -16.1 °C 2.0 °F /  -16.7 °C 1000.6in /  33880.3hPa South 2.6mph /  4.2km/h 9.3mph /  15km/h 93% 1.0in /  25.4mm WeatherDisplay:10.37 W/m2 RA
05:49 3.0 °F /  -16.1 °C 2.0 °F /  -16.7 °C 1000.6in /  33880.3hPa South 2.4mph /  3.9km/h 7.4mph /  11.9km/h 93% 1.0in /  25.4mm WeatherDisplay:10.37 W/m2 RA
05:54 3.0 °F /  -16.1 °C 2.0 °F /  -16.7 °C 1000.6in /  33880.3hPa South 3.1mph /  5km/h 6.4mph /  10.3km/h 93% 1.0in /  25.4mm WeatherDisplay:10.37 W/m2 FEW
05:57 3.0 °F /  -16.1 °C 2.0 °F /  -16.7 °C 1000.6in /  33880.3hPa WSW 1.0mph /  1.6km/h 5.6mph /  9km/h 93% 1.0in /  25.4mm WeatherDisplay:10.37 W/m2 FEW
06:02 2.9 °F /  -16.2 °C 1.9 °F /  -16.7 °C 1000.6in /  33880.3hPa SSW 4.5mph /  7.2km/h 5.6mph /  9km/h 93% 1.3in /  33.02mm WeatherDisplay:10.37 W/m2 RA
06:04 2.9 °F /  -16.2 °C 1.9 °F /  -16.7 °C 1000.6in /  33880.3hPa ESE 7.4mph /  11.9km/h 20.9mph /  33.6km/h 93% 1.0in /  25.4mm WeatherDisplay:10.37 W/m2 RA
06:09 2.9 °F /  -16.2 °C 1.9 °F /  -16.7 °C 1000.6in /  33880.3hPa Calm     93% 1.3in /  33.02mm WeatherDisplay:10.37 W/m2 RA
06:13 2.9 °F /  -16.2 °C 1.9 °F /  -16.7 °C 1000.6in /  33880.3hPa WSW 1.1mph /  1.8km/h 5.6mph /  9km/h 93% 1.3in /  33.02mm WeatherDisplay:10.37 W/m2 RA
06:18 2.9 °F /  -16.2 °C 1.9 °F /  -16.7 °C 1000.2in /  33866.8hPa South 5.0mph /  8km/h 7.4mph /  11.9km/h 93% 1.3in /  33.02mm WeatherDisplay:10.37 W/m2 FEW
06:19 2.9 °F /  -16.2 °C 1.9 °F /  -16.7 °C 1000.6in /  33880.3hPa SSW 2.4mph /  3.9km/h 5.6mph /  9km/h 93% 1.3in /  33.02mm WeatherDisplay:10.37 W/m2 FEW
06:24 2.9 °F /  -16.2 °C 1.9 °F /  -16.7 °C 1000.2in /  33866.8hPa WSW 4.2mph /  6.8km/h 5.6mph /  9km/h 93% 1.5in /  38.1mm WeatherDisplay:10.37 W/m2 RA
06:26 2.9 °F /  -16.2 °C 1.9 °F /  -16.7 °C 1000.2in /  33866.8hPa South 4.0mph /  6.4km/h 5.6mph /  9km/h 93% 1.5in /  38.1mm WeatherDisplay:10.37 W/m2 RA
06:31 2.9 °F /  -16.2 °C 1.9 °F /  -16.7 °C 1000.2in /  33866.8hPa SW 3.7mph /  6km/h 11.1mph /  17.9km/h 93% 1.5in /  38.1mm WeatherDisplay:10.37 W/m2 FEW
06:36 2.9 °F /  -16.2 °C 1.9 °F /  -16.7 °C 1000.6in /  33880.3hPa SE 2.9mph /  4.7km/h 6.4mph /  10.3km/h 93% 1.0in /  25.4mm WeatherDisplay:10.37 W/m2 FEW
06:42 2.8 °F /  -16.2 °C 1.8 °F /  -16.8 °C 1000.2in /  33866.8hPa North 0.6mph /  1km/h 3.7mph /  6km/h 93% 0.8in /  20.32mm WeatherDisplay:10.37 W/m2 FEW
06:47 2.9 °F /  -16.2 °C 1.9 °F /  -16.7 °C 1000.2in /  33866.8hPa West 1.4mph /  2.3km/h 5.6mph /  9km/h 93% 0.5in /  12.7mm WeatherDisplay:10.37 W/m2 FEW
06:52 2.9 °F /  -16.2 °C 1.9 °F /  -16.7 °C 1000.2in /  33866.8hPa SSW 3.7mph /  6km/h 7.4mph /  11.9km/h 93% 0.5in /  12.7mm WeatherDisplay:10.37 W/m2 FEW
06:57 2.9 °F /  -16.2 °C 1.9 °F /  -16.7 °C 1000.2in /  33866.8hPa SSW 4.3mph /  6.9km/h 13.0mph /  20.9km/h 93% 0.5in /  12.7mm WeatherDisplay:10.37 W/m2 FEW
07:02 2.9 °F /  -16.2 °C 1.9 °F /  -16.7 °C 1000.2in /  33866.8hPa ESE 3.7mph /  6km/h 5.6mph /  9km/h 93% 0.5in /  12.7mm WeatherDisplay:10.37 W/m2 FEW
07:04 2.9 °F /  -16.2 °C 1.9 °F /  -16.7 °C 1000.2in /  33866.8hPa Calm     93% 0.5in /  12.7mm WeatherDisplay:10.37 W/m2 FEW
07:08 2.9 °F /  -16.2 °C 1.9 °F /  -16.7 °C 1000.2in /  33866.8hPa SW 0.8mph /  1.3km/h 7.4mph /  11.9km/h 93% 0.3in /  7.62mm WeatherDisplay:10.37 W/m2 FEW
07:13 2.8 °F /  -16.2 °C 1.8 °F /  -16.8 °C 1000.2in /  33866.8hPa SSW 3.5mph /  5.6km/h 7.4mph /  11.9km/h 93% 0.3in /  7.62mm WeatherDisplay:10.37 W/m2 FEW
07:18 2.9 °F /  -16.2 °C 1.9 °F /  -16.7 °C 1000.2in /  33866.8hPa SE 3.5mph /  5.6km/h 5.6mph /  9km/h 93% 0.5in /  12.7mm WeatherDisplay:10.37 W/m2 RA
07:19 2.9 °F /  -16.2 °C 1.9 °F /  -16.7 °C 1000.2in /  33866.8hPa SE 3.2mph /  5.1km/h 13.0mph /  20.9km/h 93% 0.5in /  12.7mm WeatherDisplay:10.37 W/m2 RA
07:24 2.9 °F /  -16.2 °C 1.9 °F /  -16.7 °C 1000.2in /  33866.8hPa Calm   9.3mph /  15km/h 93% 0.3in /  7.62mm WeatherDisplay:10.37 W/m2 RA
07:29 2.8 °F /  -16.2 °C 1.8 °F /  -16.8 °C 1000.2in /  33866.8hPa East 1.4mph /  2.3km/h 3.7mph /  6km/h 93% 0.3in /  7.62mm WeatherDisplay:10.37 W/m2 FEW
07:30 2.8 °F /  -16.2 °C 1.8 °F /  -16.8 °C 1000.2in /  33866.8hPa East 1.4mph /  2.3km/h 5.6mph /  9km/h 93% 0.3in /  7.62mm WeatherDisplay:10.37 W/m2 FEW
07:35 2.8 °F /  -16.2 °C 1.8 °F /  -16.8 °C 1000.2in /  33866.8hPa SSE 1.9mph /  3.1km/h 7.4mph /  11.9km/h 93% 0.3in /  7.62mm WeatherDisplay:10.37 W/m2 FEW
07:40 2.8 °F /  -16.2 °C 1.8 °F /  -16.8 °C 1000.2in /  33866.8hPa South 0.3mph /  0.5km/h 3.7mph /  6km/h 93% 0.3in /  7.62mm WeatherDisplay:10.37 W/m2 FEW
07:41 2.8 °F /  -16.2 °C 1.8 °F /  -16.8 °C 1000.2in /  33866.8hPa South 1.0mph /  1.6km/h 9.7mph /  15.6km/h 93% 0.3in /  7.62mm WeatherDisplay:10.37 W/m2 FEW
07:42 2.8 °F /  -16.2 °C 1.8 °F /  -16.8 °C 1000.2in /  33866.8hPa South 1.1mph /  1.8km/h 9.3mph /  15km/h 93% 0.3in /  7.62mm WeatherDisplay:10.37 W/m2 FEW
07:48 2.8 °F /  -16.2 °C 1.8 °F /  -16.8 °C 1000.2in /  33866.8hPa Calm     93% 0.3in /  7.62mm WeatherDisplay:10.37 W/m2 FEW
07:53 2.8 °F /  -16.2 °C 1.8 °F /  -16.8 °C 1000.2in /  33866.8hPa South 1.9mph /  3.1km/h 16.1mph /  25.9km/h 93% 0.3in /  7.62mm WeatherDisplay:10.37 W/m2 FEW
07:58 2.9 °F /  -16.2 °C 1.9 °F /  -16.7 °C 1000.2in /  33866.8hPa Calm     93% 0.3in /  7.62mm WeatherDisplay:10.37 W/m2 FEW
07:59 2.9 °F /  -16.2 °C 1.9 °F /  -16.7 °C 1000.2in /  33866.8hPa Calm     93% 0.3in /  7.62mm WeatherDisplay:10.37 W/m2 FEW
08:04 2.9 °F /  -16.2 °C 1.9 °F /  -16.7 °C 1000.2in /  33866.8hPa SE 2.9mph /  4.7km/h 7.4mph /  11.9km/h 93% 0.3in /  7.62mm WeatherDisplay:10.37 W/m2 FEW
08:06 2.8 °F /  -16.2 °C 1.8 °F /  -16.8 °C 1000.2in /  33866.8hPa South 2.3mph /  3.7km/h 5.6mph /  9km/h 93% 0.3in /  7.62mm WeatherDisplay:10.37 W/m2 FEW
08:11 2.8 °F /  -16.2 °C 1.8 °F /  -16.8 °C 1000.2in /  33866.8hPa South 4.5mph /  7.2km/h 11.1mph /  17.9km/h 93% 0.3in /  7.62mm WeatherDisplay:10.37 W/m2 FEW
08:16 2.8 °F /  -16.2 °C 1.8 °F /  -16.8 °C 1000.2in /  33866.8hPa WSW 2.7mph /  4.3km/h 5.6mph /  9km/h 93% 0.0in /  0mm WeatherDisplay:10.37 W/m2 FEW
08:21 2.9 °F /  -16.2 °C 1.9 °F /  -16.7 °C 1000.2in /  33866.8hPa Calm     93% 0.0in /  0mm WeatherDisplay:10.37 W/m2 FEW
08:26 2.8 °F /  -16.2 °C 1.8 °F /  -16.8 °C 1000.2in /  33866.8hPa Calm     93% 0.0in /  0mm WeatherDisplay:10.37 W/m2 FEW
08:29 2.8 °F /  -16.2 °C 1.8 °F /  -16.8 °C 1000.2in /  33866.8hPa SSE 2.3mph /  3.7km/h 5.6mph /  9km/h 93% 0.0in /  0mm WeatherDisplay:10.37 W/m2 FEW
08:32 2.8 °F /  -16.2 °C 1.8 °F /  -16.8 °C 1000.2in /  33866.8hPa SSE 5.5mph /  8.9km/h 11.1mph /  17.9km/h 93% 0.0in /  0mm WeatherDisplay:10.37 W/m2 FEW
08:37 2.8 °F /  -16.2 °C 1.8 °F /  -16.8 °C 1000.6in /  33880.3hPa South 1.8mph /  2.9km/h 11.1mph /  17.9km/h 93% 0.0in /  0mm WeatherDisplay:10.37 W/m2 FEW
08:42 2.8 °F /  -16.2 °C 1.8 °F /  -16.8 °C 1000.6in /  33880.3hPa South 0.3mph /  0.5km/h   93% 0.0in /  0mm WeatherDisplay:10.37 W/m2 FEW
08:47 2.8 °F /  -16.2 °C 1.8 °F /  -16.8 °C 1000.6in /  33880.3hPa Calm     93% 0.0in /  0mm WeatherDisplay:10.37 W/m2 FEW
08:53 2.8 °F /  -16.2 °C 1.8 °F /  -16.8 °C 1000.6in /  33880.3hPa Calm     93% 0.0in /  0mm WeatherDisplay:10.37 W/m2 FEW
08:58 2.8 °F /  -16.2 °C 1.8 °F /  -16.8 °C 1000.6in /  33880.3hPa SW 0.2mph /  0.3km/h 3.2mph /  5.1km/h 93% 0.0in /  0mm WeatherDisplay:10.37 W/m2 FEW
09:03 2.8 °F /  -16.2 °C 1.8 °F /  -16.8 °C 1000.6in /  33880.3hPa Calm     93% 0.0in /  0mm WeatherDisplay:10.37 W/m2 FEW
09:04 2.8 °F /  -16.2 °C 1.8 °F /  -16.8 °C 1000.6in /  33880.3hPa Calm     93% 0.0in /  0mm WeatherDisplay:10.37 W/m2 FEW
09:14 2.8 °F /  -16.2 °C 1.8 °F /  -16.8 °C 1000.6in /  33880.3hPa WSW 2.3mph /  3.7km/h 6.4mph /  10.3km/h 93% 0.0in /  0mm WeatherDisplay:10.37 W/m2 FEW
09:18 2.8 °F /  -16.2 °C 1.8 °F /  -16.8 °C 1000.6in /  33880.3hPa Calm     93% 0.0in /  0mm WeatherDisplay:10.37 W/m2 FEW
09:22 2.8 °F /  -16.2 °C 1.8 °F /  -16.8 °C 1000.6in /  33880.3hPa SSE 1.0mph /  1.6km/h 3.2mph /  5.1km/h 93% 0.0in /  0mm WeatherDisplay:10.37 W/m2 FEW
09:28 2.7 °F /  -16.3 °C 1.7 °F /  -16.8 °C 1000.6in /  33880.3hPa ESE 0.3mph /  0.5km/h 3.7mph /  6km/h 93% 0.0in /  0mm WeatherDisplay:10.37 W/m2 FEW
09:33 2.7 °F /  -16.3 °C 1.7 °F /  -16.8 °C 1000.6in /  33880.3hPa Calm     93% 0.0in /  0mm WeatherDisplay:10.37 W/m2 FEW
09:37 2.7 °F /  -16.3 °C 1.7 °F /  -16.8 °C 1000.6in /  33880.3hPa SE 2.6mph /  4.2km/h 7.4mph /  11.9km/h 93% 0.0in /  0mm WeatherDisplay:10.37 W/m2 FEW
09:43 2.7 °F /  -16.3 °C 1.7 °F /  -16.8 °C 1000.6in /  33880.3hPa SE 0.8mph /  1.3km/h 6.4mph /  10.3km/h 93% 0.0in /  0mm WeatherDisplay:10.37 W/m2 FEW
09:48 2.7 °F /  -16.3 °C 1.7 °F /  -16.8 °C 1000.6in /  33880.3hPa Calm     93% 0.0in /  0mm WeatherDisplay:10.37 W/m2 FEW
09:53 2.7 °F /  -16.3 °C 1.7 °F /  -16.8 °C 1000.6in /  33880.3hPa NNE 1.8mph /  2.9km/h 5.6mph /  9km/h 93% 0.0in /  0mm WeatherDisplay:10.37 W/m2 FEW
09:54 2.7 °F /  -16.3 °C 1.7 °F /  -16.8 °C 1000.6in /  33880.3hPa Calm     93% 0.0in /  0mm WeatherDisplay:10.37 W/m2 FEW
09:59 2.7 °F /  -16.3 °C 1.7 °F /  -16.8 °C 1000.6in /  33880.3hPa SW 1.6mph /  2.6km/h 5.6mph /  9km/h 93% 0.0in /  0mm WeatherDisplay:10.37 W/m2 FEW
10:00 2.7 °F /  -16.3 °C 1.7 °F /  -16.8 °C 1000.6in /  33880.3hPa SW 0.5mph /  0.8km/h 5.6mph /  9km/h 93% 0.0in /  0mm WeatherDisplay:10.37 W/m2 FEW
10:05 2.7 °F /  -16.3 °C 1.7 °F /  -16.8 °C 1000.6in /  33880.3hPa Calm     93% 0.0in /  0mm WeatherDisplay:10.37 W/m2 FEW
10:11 2.7 °F /  -16.3 °C 1.7 °F /  -16.8 °C 1000.6in /  33880.3hPa SE 1.6mph /  2.6km/h 11.1mph /  17.9km/h 93% 0.0in /  0mm WeatherDisplay:10.37 W/m2 FEW
10:16 2.7 °F /  -16.3 °C 1.7 °F /  -16.8 °C 1000.6in /  33880.3hPa Calm     93% 0.0in /  0mm WeatherDisplay:10.37 W/m2 FEW
10:21 2.7 °F /  -16.3 °C 1.7 °F /  -16.8 °C 1000.6in /  33880.3hPa Calm     93% 0.0in /  0mm WeatherDisplay:10.37 W/m2 FEW
10:26 2.6 °F /  -16.3 °C 1.6 °F /  -16.9 °C 1000.6in /  33880.3hPa ESE 1.1mph /  1.8km/h 6.4mph /  10.3km/h 93% 0.0in /  0mm WeatherDisplay:10.37 W/m2 FEW
10:31 2.6 °F /  -16.3 °C 1.6 °F /  -16.9 °C 1000.6in /  33880.3hPa Calm     93% 0.0in /  0mm WeatherDisplay:10.37 W/m2 FEW
10:36 2.6 °F /  -16.3 °C 1.6 °F /  -16.9 °C 1000.6in /  33880.3hPa SW 2.7mph /  4.3km/h 5.6mph /  9km/h 93% 0.0in /  0mm WeatherDisplay:10.37 W/m2 FEW
10:46 2.6 °F /  -16.3 °C 1.6 °F /  -16.9 °C 1000.6in /  33880.3hPa SSE 0.2mph /  0.3km/h 5.6mph /  9km/h 93% 0.0in /  0mm WeatherDisplay:10.37 W/m2 FEW
10:51 2.6 °F /  -16.3 °C 1.6 °F /  -16.9 °C 1000.6in /  33880.3hPa SSE 1.0mph /  1.6km/h 5.6mph /  9km/h 93% 0.0in /  0mm WeatherDisplay:10.37 W/m2 FEW
10:52 2.6 °F /  -16.3 °C 1.6 °F /  -16.9 °C 1000.6in /  33880.3hPa SSE 0.2mph /  0.3km/h 3.2mph /  5.1km/h 93% 0.0in /  0mm WeatherDisplay:10.37 W/m2 FEW
10:57 2.6 °F /  -16.3 °C 1.6 °F /  -16.9 °C 1000.6in /  33880.3hPa South 1.4mph /  2.3km/h 13.0mph /  20.9km/h 93% 0.0in /  0mm WeatherDisplay:10.37 W/m2 FEW
11:00 2.7 °F /  -16.3 °C 1.7 °F /  -16.8 °C 1000.6in /  33880.3hPa Calm   3.7mph /  6km/h 93% 0.0in /  0mm WeatherDisplay:10.37 W/m2 FEW
11:03 2.7 °F /  -16.3 °C 1.7 °F /  -16.8 °C 1000.6in /  33880.3hPa Calm     93% 0.0in /  0mm WeatherDisplay:10.37 W/m2 FEW
11:08 2.6 °F /  -16.3 °C 1.6 °F /  -16.9 °C 1000.6in /  33880.3hPa Calm     93% 0.0in /  0mm WeatherDisplay:10.37 W/m2 FEW
11:09 2.6 °F /  -16.3 °C 1.6 °F /  -16.9 °C 1000.6in /  33880.3hPa Calm     93% 0.0in /  0mm WeatherDisplay:10.37 W/m2 FEW
11:14 2.6 °F /  -16.3 °C 1.6 °F /  -16.9 °C 1000.6in /  33880.3hPa Calm     93% 0.0in /  0mm WeatherDisplay:10.37 W/m2 FEW
11:18 2.6 °F /  -16.3 °C 1.6 °F /  -16.9 °C 1000.6in /  33880.3hPa Calm   3.7mph /  6km/h 93% 0.0in /  0mm WeatherDisplay:10.37 W/m2 FEW
11:23 2.6 °F /  -16.3 °C 1.6 °F /  -16.9 °C 1000.2in /  33866.8hPa Calm   3.7mph /  6km/h 93% 0.0in /  0mm WeatherDisplay:10.37 W/m2 FEW
11:27 2.6 °F /  -16.3 °C 1.6 °F /  -16.9 °C 1000.2in /  33866.8hPa Calm     93% 0.0in /  0mm WeatherDisplay:10.37 W/m2 FEW
11:32 2.7 °F /  -16.3 °C 1.7 °F /  -16.8 °C 1000.6in /  33880.3hPa South 0.3mph /  0.5km/h 5.6mph /  9km/h 93% 0.0in /  0mm WeatherDisplay:10.37 W/m2 FEW
11:37 2.7 °F /  -16.3 °C 1.7 °F /  -16.8 °C 1000.2in /  33866.8hPa Calm   3.7mph /  6km/h 93% 0.0in /  0mm WeatherDisplay:10.37 W/m2 FEW
11:39 2.6 °F /  -16.3 °C 1.6 °F /  -16.9 °C 1000.2in /  33866.8hPa Calm     93% 0.0in /  0mm WeatherDisplay:10.37 W/m2 FEW
11:45 2.6 °F /  -16.3 °C 1.6 °F /  -16.9 °C 1000.2in /  33866.8hPa Calm   6.4mph /  10.3km/h 93% 0.0in /  0mm WeatherDisplay:10.37 W/m2 FEW
11:50 2.6 °F /  -16.3 °C 1.6 °F /  -16.9 °C 1000.2in /  33866.8hPa Calm     93% 0.0in /  0mm WeatherDisplay:10.37 W/m2 FEW
11:54 2.6 °F /  -16.3 °C 1.6 °F /  -16.9 °C 1000.2in /  33866.8hPa Calm     93% 0.0in /  0mm WeatherDisplay:10.37 W/m2 FEW
11:59 2.6 °F /  -16.3 °C 1.6 °F /  -16.9 °C 1000.2in /  33866.8hPa Calm     93% 0.0in /  0mm WeatherDisplay:10.37 W/m2 FEW
12:00 2.6 °F /  -16.3 °C 1.6 °F /  -16.9 °C 1000.2in /  33866.8hPa Calm     93% 0.0in /  0mm WeatherDisplay:10.37 W/m2 FEW
12:06 2.6 °F /  -16.3 °C 1.6 °F /  -16.9 °C 1000.2in /  33866.8hPa Calm     93% 0.0in /  0mm WeatherDisplay:10.37 W/m2 FEW
12:11 2.6 °F /  -16.3 °C 1.6 °F /  -16.9 °C 1000.2in /  33866.8hPa Calm     93% 0.0in /  0mm WeatherDisplay:10.37 W/m2 FEW
12:16 2.6 °F /  -16.3 °C 1.6 °F /  -16.9 °C 1000.2in /  33866.8hPa Calm     93% 0.0in /  0mm WeatherDisplay:10.37 W/m2 FEW
12:21 2.6 °F /  -16.3 °C 1.6 °F /  -16.9 °C 999.9in /  33856.6hPa Calm     93% 0.0in /  0mm WeatherDisplay:10.37 W/m2 FEW
12:23 2.6 °F /  -16.3 °C 1.6 °F /  -16.9 °C 999.9in /  33856.6hPa Calm     93% 0.0in /  0mm WeatherDisplay:10.37 W/m2 FEW
12:28 2.6 °F /  -16.3 °C 1.6 °F /  -16.9 °C 999.9in /  33856.6hPa Calm     93% 0.0in /  0mm WeatherDisplay:10.37 W/m2 FEW
12:33 2.6 °F /  -16.3 °C 1.6 °F /  -16.9 °C 999.9in /  33856.6hPa Calm     93% 0.0in /  0mm WeatherDisplay:10.37 W/m2 FEW
12:39 2.6 °F /  -16.3 °C 1.6 °F /  -16.9 °C 999.9in /  33856.6hPa SE 0.2mph /  0.3km/h 3.7mph /  6km/h 93% 0.0in /  0mm WeatherDisplay:10.37 W/m2 FEW
12:41 2.6 °F /  -16.3 °C 1.6 °F /  -16.9 °C 999.9in /  33856.6hPa Calm     93% 0.0in /  0mm WeatherDisplay:10.37 W/m2 FEW
12:46 2.6 °F /  -16.3 °C 1.6 °F /  -16.9 °C 999.9in /  33856.6hPa Calm   1.9mph /  3.1km/h 93% 0.0in /  0mm WeatherDisplay:10.37 W/m2 FEW
12:51 2.6 °F /  -16.3 °C 1.6 °F /  -16.9 °C 999.9in /  33856.6hPa South 0.8mph /  1.3km/h 1.6mph /  2.6km/h 93% 0.0in /  0mm WeatherDisplay:10.37 W/m2 FEW
12:56 2.6 °F /  -16.3 °C 1.6 °F /  -16.9 °C 999.9in /  33856.6hPa South 1.1mph /  1.8km/h 5.6mph /  9km/h 93% 0.0in /  0mm WeatherDisplay:10.37 W/m2 FEW
12:58 2.6 °F /  -16.3 °C 1.6 °F /  -16.9 °C 999.9in /  33856.6hPa South 0.3mph /  0.5km/h 1.9mph /  3.1km/h 93% 0.0in /  0mm WeatherDisplay:10.37 W/m2 FEW
13:03 2.6 °F /  -16.3 °C 1.6 °F /  -16.9 °C 999.9in /  33856.6hPa SSW 3.4mph /  5.5km/h 7.4mph /  11.9km/h 93% 0.0in /  0mm WeatherDisplay:10.37 W/m2 FEW
13:08 2.6 °F /  -16.3 °C 1.6 °F /  -16.9 °C 999.9in /  33856.6hPa South 1.3mph /  2.1km/h 5.6mph /  9km/h 93% 0.0in /  0mm WeatherDisplay:10.37 W/m2 FEW
13:09 2.6 °F /  -16.3 °C 1.6 °F /  -16.9 °C 999.9in /  33856.6hPa Calm     93% 0.0in /  0mm WeatherDisplay:10.37 W/m2 FEW
13:14 2.5 °F /  -16.4 °C 1.5 °F /  -16.9 °C 999.9in /  33856.6hPa Calm   5.6mph /  9km/h 93% 0.0in /  0mm WeatherDisplay:10.37 W/m2 FEW
13:16 2.5 °F /  -16.4 °C 1.5 °F /  -16.9 °C 999.9in /  33856.6hPa Calm     93% 0.0in /  0mm WeatherDisplay:10.37 W/m2 FEW
13:18 2.5 °F /  -16.4 °C 1.5 °F /  -16.9 °C 999.9in /  33856.6hPa Calm     93% 0.0in /  0mm WeatherDisplay:10.37 W/m2 FEW
13:23 2.5 °F /  -16.4 °C 1.5 °F /  -16.9 °C 999.9in /  33856.6hPa Calm     93% 0.0in /  0mm WeatherDisplay:10.37 W/m2 FEW
13:28 2.4 °F /  -16.4 °C 1.4 °F /  -17 °C 999.9in /  33856.6hPa Calm     93% 0.0in /  0mm WeatherDisplay:10.37 W/m2 FEW
13:33 2.4 °F /  -16.4 °C 1.4 °F /  -17 °C 999.9in /  33856.6hPa SSW 0.6mph /  1km/h 5.6mph /  9km/h 93% 0.0in /  0mm WeatherDisplay:10.37 W/m2 FEW
13:38 2.4 °F /  -16.4 °C 1.4 °F /  -17 °C 999.9in /  33856.6hPa ESE 1.3mph /  2.1km/h 5.6mph /  9km/h 93% 0.0in /  0mm WeatherDisplay:10.37 W/m2 FEW
13:43 2.4 °F /  -16.4 °C 1.4 °F /  -17 °C 999.9in /  33856.6hPa SE 4.2mph /  6.8km/h 5.6mph /  9km/h 93% 0.0in /  0mm WeatherDisplay:10.37 W/m2 FEW
13:48 2.4 °F /  -16.4 °C 1.4 °F /  -17 °C 999.9in /  33856.6hPa Calm     93% 0.0in /  0mm WeatherDisplay:10.37 W/m2 FEW
13:52 2.4 °F /  -16.4 °C 1.4 °F /  -17 °C 999.5in /  33843.1hPa Calm     93% 0.0in /  0mm WeatherDisplay:10.37 W/m2 FEW
13:58 2.4 °F /  -16.4 °C 1.4 °F /  -17 °C 999.5in /  33843.1hPa Calm     93% 0.0in /  0mm WeatherDisplay:10.37 W/m2 FEW
14:02 2.3 °F /  -16.5 °C 1.3 °F /  -17.1 °C 999.5in /  33843.1hPa Calm     93% 0.0in /  0mm WeatherDisplay:10.37 W/m2 FEW
14:08 2.3 °F /  -16.5 °C 1.3 °F /  -17.1 °C 999.5in /  33843.1hPa Calm     93% 0.0in /  0mm WeatherDisplay:10.37 W/m2 FEW
14:11 2.4 °F /  -16.4 °C 1.4 °F /  -17 °C 999.5in /  33843.1hPa Calm     93% 0.0in /  0mm WeatherDisplay:10.37 W/m2 FEW
14:16 2.3 °F /  -16.5 °C 1.3 °F /  -17.1 °C 999.5in /  33843.1hPa Calm     93% 0.0in /  0mm WeatherDisplay:10.37 W/m2 FEW
14:21 2.3 °F /  -16.5 °C 1.3 °F /  -17.1 °C 999.9in /  33856.6hPa Calm     93% 0.0in /  0mm WeatherDisplay:10.37 W/m2 FEW
14:24 2.3 °F /  -16.5 °C 1.3 °F /  -17.1 °C 999.5in /  33843.1hPa Calm     93% 0.0in /  0mm WeatherDisplay:10.37 W/m2 FEW
14:25 2.3 °F /  -16.5 °C 1.3 °F /  -17.1 °C 999.5in /  33843.1hPa SE 0.6mph /  1km/h 3.7mph /  6km/h 93% 0.0in /  0mm WeatherDisplay:10.37 W/m2 FEW
14:36 2.3 °F /  -16.5 °C 1.3 °F /  -17.1 °C 999.5in /  33843.1hPa Calm     93% 0.0in /  0mm WeatherDisplay:10.37 W/m2 FEW
14:41 2.3 °F /  -16.5 °C 1.3 °F /  -17.1 °C 999.5in /  33843.1hPa Calm     93% 0.0in /  0mm WeatherDisplay:10.37 W/m2 FEW
14:46 2.3 °F /  -16.5 °C 1.3 °F /  -17.1 °C 999.5in /  33843.1hPa Calm     93% 0.0in /  0mm WeatherDisplay:10.37 W/m2 FEW
14:51 2.2 °F /  -16.6 °C 1.2 °F /  -17.1 °C 999.5in /  33843.1hPa Calm     93% 0.0in /  0mm WeatherDisplay:10.37 W/m2 FEW
14:53 2.2 °F /  -16.6 °C 1.2 °F /  -17.1 °C 999.5in /  33843.1hPa Calm     93% 0.0in /  0mm WeatherDisplay:10.37 W/m2 FEW
14:58 2.2 °F /  -16.6 °C 1.2 °F /  -17.1 °C 999.5in /  33843.1hPa Calm     93% 0.0in /  0mm WeatherDisplay:10.37 W/m2 FEW
15:03 2.2 °F /  -16.6 °C 1.2 °F /  -17.1 °C 999.5in /  33843.1hPa Calm     93% 0.0in /  0mm WeatherDisplay:10.37 W/m2 FEW
15:08 2.2 °F /  -16.6 °C 1.2 °F /  -17.1 °C 999.5in /  33843.1hPa Calm     93% 0.0in /  0mm WeatherDisplay:10.37 W/m2 FEW
15:13 2.2 °F /  -16.6 °C 1.2 °F /  -17.1 °C 999.5in /  33843.1hPa Calm     93% 0.0in /  0mm WeatherDisplay:10.37 W/m2 FEW
15:18 2.2 °F /  -16.6 °C 1.2 °F /  -17.1 °C 999.5in /  33843.1hPa Calm     93% 0.0in /  0mm WeatherDisplay:10.37 W/m2 FEW
15:23 2.2 °F /  -16.6 °C 1.2 °F /  -17.1 °C 999.5in /  33843.1hPa Calm     93% 0.0in /  0mm WeatherDisplay:10.37 W/m2 FEW
15:28 2.2 °F /  -16.6 °C 1.2 °F /  -17.1 °C 999.5in /  33843.1hPa Calm     93% 0.0in /  0mm WeatherDisplay:10.37 W/m2 FEW
15:33 2.2 °F /  -16.6 °C 1.2 °F /  -17.1 °C 999.2in /  33832.9hPa Calm     93% 0.0in /  0mm WeatherDisplay:10.37 W/m2 FEW
15:38 2.2 °F /  -16.6 °C 1.2 °F /  -17.1 °C 999.2in /  33832.9hPa Calm     93% 0.0in /  0mm WeatherDisplay:10.37 W/m2 FEW
15:43 2.2 °F /  -16.6 °C 1.2 °F /  -17.1 °C 999.2in /  33832.9hPa Calm     93% 0.0in /  0mm WeatherDisplay:10.37 W/m2 FEW
15:44 2.2 °F /  -16.6 °C 1.2 °F /  -17.1 °C 999.2in /  33832.9hPa Calm     93% 0.0in /  0mm WeatherDisplay:10.37 W/m2 FEW
15:49 2.2 °F /  -16.6 °C 1.2 °F /  -17.1 °C 999.2in /  33832.9hPa Calm     93% 0.0in /  0mm WeatherDisplay:10.37 W/m2 FEW
15:50 2.2 °F /  -16.6 °C 1.2 °F /  -17.1 °C 999.2in /  33832.9hPa SE 2.6mph /  4.2km/h 5.6mph /  9km/h 93% 0.0in /  0mm WeatherDisplay:10.37 W/m2 FEW
15:56 2.2 °F /  -16.6 °C 1.2 °F /  -17.1 °C 999.2in /  33832.9hPa SE 0.2mph /  0.3km/h 3.7mph /  6km/h 93% 0.0in /  0mm WeatherDisplay:10.37 W/m2 FEW
16:01 2.2 °F /  -16.6 °C 1.2 °F /  -17.1 °C 999.2in /  33832.9hPa Calm     93% 0.0in /  0mm WeatherDisplay:10.37 W/m2 FEW
16:06 2.2 °F /  -16.6 °C 1.2 °F /  -17.1 °C 999.2in /  33832.9hPa SE 2.3mph /  3.7km/h 3.7mph /  6km/h 93% 0.0in /  0mm WeatherDisplay:10.37 W/m2 FEW
16:11 2.2 °F /  -16.6 °C 1.2 °F /  -17.1 °C 999.2in /  33832.9hPa Calm     93% 0.0in /  0mm WeatherDisplay:10.37 W/m2 FEW
16:12 2.2 °F /  -16.6 °C 1.2 °F /  -17.1 °C 999.2in /  33832.9hPa SE 1.1mph /  1.8km/h 1.9mph /  3.1km/h 93% 0.0in /  0mm WeatherDisplay:10.37 W/m2 FEW
16:18 2.2 °F /  -16.6 °C 1.2 °F /  -17.1 °C 999.2in /  33832.9hPa Calm     93% 0.0in /  0mm WeatherDisplay:10.37 W/m2 FEW
16:23 2.2 °F /  -16.6 °C 1.2 °F /  -17.1 °C 999.2in /  33832.9hPa Calm   1.6mph /  2.6km/h 93% 0.0in /  0mm WeatherDisplay:10.37 W/m2 FEW
16:25 2.2 °F /  -16.6 °C 1.2 °F /  -17.1 °C 999.2in /  33832.9hPa ESE 0.5mph /  0.8km/h 3.7mph /  6km/h 93% 0.0in /  0mm WeatherDisplay:10.37 W/m2 FEW
16:30 2.2 °F /  -16.6 °C 1.2 °F /  -17.1 °C 999.2in /  33832.9hPa Calm     93% 0.0in /  0mm WeatherDisplay:10.37 W/m2 FEW
16:35 2.2 °F /  -16.6 °C 1.2 °F /  -17.1 °C 999.2in /  33832.9hPa Calm     93% 0.0in /  0mm WeatherDisplay:10.37 W/m2 FEW
16:38 2.2 °F /  -16.6 °C 1.2 °F /  -17.1 °C 999.2in /  33832.9hPa SE 1.3mph /  2.1km/h 3.7mph /  6km/h 93% 0.0in /  0mm WeatherDisplay:10.37 W/m2 FEW
16:43 2.2 °F /  -16.6 °C 1.2 °F /  -17.1 °C 999.2in /  33832.9hPa Calm   1.9mph /  3.1km/h 93% 0.0in /  0mm WeatherDisplay:10.37 W/m2 FEW
16:46 2.2 °F /  -16.6 °C 1.2 °F /  -17.1 °C 999.2in /  33832.9hPa SE 0.3mph /  0.5km/h 1.9mph /  3.1km/h 93% 0.0in /  0mm WeatherDisplay:10.37 W/m2 FEW
16:51 2.2 °F /  -16.6 °C 1.2 °F /  -17.1 °C 999.2in /  33832.9hPa ESE 0.5mph /  0.8km/h 5.6mph /  9km/h 93% 0.0in /  0mm WeatherDisplay:10.37 W/m2 FEW
16:56 2.2 °F /  -16.6 °C 1.2 °F /  -17.1 °C 999.2in /  33832.9hPa East 0.6mph /  1km/h 5.6mph /  9km/h 93% 0.0in /  0mm WeatherDisplay:10.37 W/m2 FEW
17:01 2.2 °F /  -16.6 °C 1.2 °F /  -17.1 °C 999.2in /  33832.9hPa ESE 0.6mph /  1km/h 3.7mph /  6km/h 93% 0.0in /  0mm WeatherDisplay:10.37 W/m2 FEW
17:02 2.2 °F /  -16.6 °C 1.2 °F /  -17.1 °C 999.2in /  33832.9hPa Calm     93% 0.0in /  0mm WeatherDisplay:10.37 W/m2 FEW
17:07 2.2 °F /  -16.6 °C 1.2 °F /  -17.1 °C 999.2in /  33832.9hPa Calm     93% 0.0in /  0mm WeatherDisplay:10.37 W/m2 FEW
17:12 2.2 °F /  -16.6 °C 1.2 °F /  -17.1 °C 999.2in /  33832.9hPa East 0.2mph /  0.3km/h 1.9mph /  3.1km/h 93% 0.0in /  0mm WeatherDisplay:10.37 W/m2 FEW
17:16 2.2 °F /  -16.6 °C 1.2 °F /  -17.1 °C 999.2in /  33832.9hPa ESE 3.1mph /  5km/h 11.1mph /  17.9km/h 93% 0.0in /  0mm WeatherDisplay:10.37 W/m2 FEW
17:19 2.2 °F /  -16.6 °C 1.2 °F /  -17.1 °C 999.2in /  33832.9hPa Calm   3.7mph /  6km/h 93% 0.0in /  0mm WeatherDisplay:10.37 W/m2 FEW
17:24 2.2 °F /  -16.6 °C 1.2 °F /  -17.1 °C 998.9in /  33822.8hPa Calm   5.6mph /  9km/h 93% 0.0in /  0mm WeatherDisplay:10.37 W/m2 FEW
17:29 2.2 °F /  -16.6 °C 1.2 °F /  -17.1 °C 998.9in /  33822.8hPa Calm     93% 0.0in /  0mm WeatherDisplay:10.37 W/m2 FEW
17:34 2.2 °F /  -16.6 °C 1.2 °F /  -17.1 °C 999.2in /  33832.9hPa Calm     93% 0.0in /  0mm WeatherDisplay:10.37 W/m2 FEW
17:39 2.2 °F /  -16.6 °C 1.2 °F /  -17.1 °C 999.2in /  33832.9hPa Calm     93% 0.0in /  0mm WeatherDisplay:10.37 W/m2 FEW
17:43 2.2 °F /  -16.6 °C 1.2 °F /  -17.1 °C 999.2in /  33832.9hPa Calm     93% 0.0in /  0mm WeatherDisplay:10.37 W/m2 FEW
17:48 2.2 °F /  -16.6 °C 1.2 °F /  -17.1 °C 999.2in /  33832.9hPa ENE 6.3mph /  10.1km/h 14.8mph /  23.8km/h 93% 0.0in /  0mm WeatherDisplay:10.37 W/m2 FEW
17:53 2.2 °F /  -16.6 °C 1.2 °F /  -17.1 °C 998.9in /  33822.8hPa SSE 1.1mph /  1.8km/h 8.0mph /  12.9km/h 93% 0.0in /  0mm WeatherDisplay:10.37 W/m2 FEW
17:55 2.2 °F /  -16.6 °C 1.2 °F /  -17.1 °C 998.9in /  33822.8hPa SSE 4.3mph /  6.9km/h 7.4mph /  11.9km/h 93% 0.0in /  0mm WeatherDisplay:10.37 W/m2 FEW
18:00 2.1 °F /  -16.6 °C 1.1 °F /  -17.2 °C 998.9in /  33822.8hPa Calm   1.9mph /  3.1km/h 93% 0.0in /  0mm WeatherDisplay:10.37 W/m2 FEW
18:05 2.1 °F /  -16.6 °C 1.1 °F /  -17.2 °C 998.9in /  33822.8hPa SSE 0.8mph /  1.3km/h 5.6mph /  9km/h 93% 0.0in /  0mm WeatherDisplay:10.37 W/m2 FEW
18:07 2.1 °F /  -16.6 °C 1.1 °F /  -17.2 °C 998.9in /  33822.8hPa Calm     93% 0.0in /  0mm WeatherDisplay:10.37 W/m2 FEW
18:12 2.1 °F /  -16.6 °C 1.1 °F /  -17.2 °C 998.9in /  33822.8hPa SSE 1.4mph /  2.3km/h 5.6mph /  9km/h 93% 0.0in /  0mm WeatherDisplay:10.37 W/m2 FEW
18:17 2.1 °F /  -16.6 °C 1.1 °F /  -17.2 °C 998.9in /  33822.8hPa SE 0.6mph /  1km/h 7.4mph /  11.9km/h 93% 0.0in /  0mm WeatherDisplay:10.37 W/m2 FEW
18:18 2.1 °F /  -16.6 °C 1.1 °F /  -17.2 °C 998.9in /  33822.8hPa SSE 1.0mph /  1.6km/h 8.0mph /  12.9km/h 93% 0.0in /  0mm WeatherDisplay:10.37 W/m2 FEW
18:24 2.1 °F /  -16.6 °C 1.1 °F /  -17.2 °C 998.9in /  33822.8hPa East 2.9mph /  4.7km/h 5.6mph /  9km/h 93% 0.0in /  0mm WeatherDisplay:10.37 W/m2 FEW
18:25 2.0 °F /  -16.7 °C 1.0 °F /  -17.2 °C 998.9in /  33822.8hPa East 0.5mph /  0.8km/h 5.6mph /  9km/h 93% 0.0in /  0mm WeatherDisplay:10.37 W/m2 FEW
18:30 2.0 °F /  -16.7 °C 1.0 °F /  -17.2 °C 998.9in /  33822.8hPa SE 2.6mph /  4.2km/h 5.6mph /  9km/h 93% 0.0in /  0mm WeatherDisplay:10.37 W/m2 FEW
18:35 2.0 °F /  -16.7 °C 1.0 °F /  -17.2 °C 998.9in /  33822.8hPa Calm   3.7mph /  6km/h 93% 0.0in /  0mm WeatherDisplay:10.37 W/m2 FEW
18:40 1.9 °F /  -16.7 °C 0.9 °F /  -17.3 °C 998.9in /  33822.8hPa Calm     93% 0.0in /  0mm WeatherDisplay:10.37 W/m2 FEW
18:45 1.9 °F /  -16.7 °C 0.9 °F /  -17.3 °C 998.9in /  33822.8hPa Calm     93% 0.0in /  0mm WeatherDisplay:10.37 W/m2 FEW
18:50 1.9 °F /  -16.7 °C 0.9 °F /  -17.3 °C 999.2in /  33832.9hPa East 0.8mph /  1.3km/h 3.2mph /  5.1km/h 93% 0.0in /  0mm WeatherDisplay:10.37 W/m2 FEW
18:54 1.9 °F /  -16.7 °C 0.9 °F /  -17.3 °C 999.2in /  33832.9hPa Calm     93% 0.3in /  7.62mm WeatherDisplay:10.37 W/m2 RA
18:55 1.9 °F /  -16.7 °C 0.9 °F /  -17.3 °C 998.9in /  33822.8hPa Calm     93% 0.3in /  7.62mm WeatherDisplay:10.37 W/m2 RA
19:00 1.9 °F /  -16.7 °C 0.9 °F /  -17.3 °C 998.9in /  33822.8hPa SE 0.5mph /  0.8km/h 3.7mph /  6km/h 93% 0.3in /  7.62mm WeatherDisplay:10.37 W/m2 RA
19:05 1.8 °F /  -16.8 °C 0.8 °F /  -17.3 °C 998.9in /  33822.8hPa Calm     93% 0.3in /  7.62mm WeatherDisplay:10.37 W/m2 FEW
19:10 1.8 °F /  -16.8 °C 0.8 °F /  -17.3 °C 998.9in /  33822.8hPa ESE 0.6mph /  1km/h 4.8mph /  7.7km/h 93% 0.3in /  7.62mm WeatherDisplay:10.37 W/m2 FEW
19:14 1.8 °F /  -16.8 °C 0.8 °F /  -17.3 °C 998.9in /  33822.8hPa East 0.2mph /  0.3km/h 1.9mph /  3.1km/h 93% 0.3in /  7.62mm WeatherDisplay:10.37 W/m2 FEW
19:19 1.8 °F /  -16.8 °C 0.8 °F /  -17.3 °C 999.2in /  33832.9hPa SE 3.4mph /  5.5km/h 5.6mph /  9km/h 93% 0.3in /  7.62mm WeatherDisplay:10.37 W/m2 FEW
19:24 1.8 °F /  -16.8 °C 0.8 °F /  -17.3 °C 999.2in /  33832.9hPa Calm     93% 0.3in /  7.62mm WeatherDisplay:10.37 W/m2 FEW
19:27 1.7 °F /  -16.8 °C 0.7 °F /  -17.4 °C 999.2in /  33832.9hPa ESE 3.5mph /  5.6km/h 5.6mph /  9km/h 93% 0.3in /  7.62mm WeatherDisplay:10.37 W/m2 FEW
19:33 1.7 °F /  -16.8 °C 0.7 °F /  -17.4 °C 999.2in /  33832.9hPa SE 2.6mph /  4.2km/h 7.4mph /  11.9km/h 93% 0.3in /  7.62mm WeatherDisplay:10.37 W/m2 FEW
19:38 1.7 °F /  -16.8 °C 0.7 °F /  -17.4 °C 999.2in /  33832.9hPa Calm     93% 0.3in /  7.62mm WeatherDisplay:10.37 W/m2 FEW
19:43 1.7 °F /  -16.8 °C 0.7 °F /  -17.4 °C 999.2in /  33832.9hPa Calm     93% 0.3in /  7.62mm WeatherDisplay:10.37 W/m2 FEW
19:47 1.6 °F /  -16.9 °C 0.6 °F /  -17.4 °C 999.2in /  33832.9hPa Calm     93% 0.3in /  7.62mm WeatherDisplay:10.37 W/m2 FEW
19:49 1.7 °F /  -16.8 °C 0.7 °F /  -17.4 °C 998.9in /  33822.8hPa East 1.3mph /  2.1km/h 3.7mph /  6km/h 93% 0.3in /  7.62mm WeatherDisplay:10.37 W/m2 FEW
19:54 1.6 °F /  -16.9 °C 0.6 °F /  -17.4 °C 998.9in /  33822.8hPa SSE 1.9mph /  3.1km/h 6.4mph /  10.3km/h 93% 0.0in /  0mm WeatherDisplay:10.37 W/m2 FEW
19:59 1.6 °F /  -16.9 °C 0.6 °F /  -17.4 °C 998.9in /  33822.8hPa Calm     93% 0.0in /  0mm WeatherDisplay:10.37 W/m2 FEW
20:04 1.6 °F /  -16.9 °C 0.6 °F /  -17.4 °C 998.9in /  33822.8hPa ESE 2.9mph /  4.7km/h 4.8mph /  7.7km/h 93% 0.0in /  0mm WeatherDisplay:10.37 W/m2 FEW
20:05 1.6 °F /  -16.9 °C 0.6 °F /  -17.4 °C 998.9in /  33822.8hPa ENE 3.4mph /  5.5km/h 6.4mph /  10.3km/h 93% 0.0in /  0mm WeatherDisplay:10.37 W/m2 FEW
20:11 1.6 °F /  -16.9 °C 0.6 °F /  -17.4 °C 998.9in /  33822.8hPa ESE 2.6mph /  4.2km/h 7.4mph /  11.9km/h 93% 0.3in /  7.62mm WeatherDisplay:10.37 W/m2 RA
20:16 1.6 °F /  -16.9 °C 0.6 °F /  -17.4 °C 998.9in /  33822.8hPa ESE 1.8mph /  2.9km/h 5.6mph /  9km/h 93% 0.3in /  7.62mm WeatherDisplay:10.37 W/m2 RA
20:22 1.7 °F /  -16.8 °C 0.7 °F /  -17.4 °C 998.9in /  33822.8hPa East 1.1mph /  1.8km/h 5.6mph /  9km/h 93% 0.3in /  7.62mm WeatherDisplay:10.37 W/m2 FEW
20:31 1.7 °F /  -16.8 °C 0.7 °F /  -17.4 °C 998.9in /  33822.8hPa SE 4.7mph /  7.6km/h 11.1mph /  17.9km/h 93% 0.3in /  7.62mm WeatherDisplay:10.37 W/m2 FEW
20:36 1.6 °F /  -16.9 °C 0.6 °F /  -17.4 °C 998.9in /  33822.8hPa ESE 4.5mph /  7.2km/h 9.3mph /  15km/h 93% 0.3in /  7.62mm WeatherDisplay:10.37 W/m2 FEW
20:41 1.6 °F /  -16.9 °C 0.6 °F /  -17.4 °C 998.9in /  33822.8hPa ESE 0.5mph /  0.8km/h 3.2mph /  5.1km/h 93% 0.3in /  7.62mm WeatherDisplay:10.37 W/m2 FEW
20:42 1.6 °F /  -16.9 °C 0.6 °F /  -17.4 °C 998.9in /  33822.8hPa East 6.3mph /  10.1km/h 9.7mph /  15.6km/h 93% 0.3in /  7.62mm WeatherDisplay:10.37 W/m2 FEW
20:48 1.6 °F /  -16.9 °C 0.6 °F /  -17.4 °C 998.9in /  33822.8hPa ESE 2.9mph /  4.7km/h 5.6mph /  9km/h 93% 0.3in /  7.62mm WeatherDisplay:10.37 W/m2 FEW
20:53 1.6 °F /  -16.9 °C 0.6 °F /  -17.4 °C 998.9in /  33822.8hPa Calm     93% 0.3in /  7.62mm WeatherDisplay:10.37 W/m2 FEW
20:59 1.6 °F /  -16.9 °C 0.6 °F /  -17.4 °C 998.9in /  33822.8hPa ENE 3.9mph /  6.3km/h 7.4mph /  11.9km/h 93% 0.3in /  7.62mm WeatherDisplay:10.37 W/m2 FEW
21:01 1.6 °F /  -16.9 °C 0.6 °F /  -17.4 °C 998.9in /  33822.8hPa ENE 1.0mph /  1.6km/h 8.0mph /  12.9km/h 93% 0.3in /  7.62mm WeatherDisplay:10.37 W/m2 FEW
21:05 1.6 °F /  -16.9 °C 0.6 °F /  -17.4 °C 998.9in /  33822.8hPa ESE 2.7mph /  4.3km/h 4.8mph /  7.7km/h 93% 0.3in /  7.62mm WeatherDisplay:10.37 W/m2 FEW
21:10 1.6 °F /  -16.9 °C 0.6 °F /  -17.4 °C 998.9in /  33822.8hPa ESE 2.4mph /  3.9km/h 5.6mph /  9km/h 93% 0.0in /  0mm WeatherDisplay:10.37 W/m2 FEW
21:15 1.5 °F /  -16.9 °C 0.5 °F /  -17.5 °C 998.9in /  33822.8hPa East 3.9mph /  6.3km/h 9.3mph /  15km/h 93% 0.0in /  0mm WeatherDisplay:10.37 W/m2 FEW
21:20 1.5 °F /  -16.9 °C 0.5 °F /  -17.5 °C 998.9in /  33822.8hPa Calm   3.7mph /  6km/h 93% 0.0in /  0mm WeatherDisplay:10.37 W/m2 FEW
21:25 1.5 °F /  -16.9 °C 0.5 °F /  -17.5 °C 998.9in /  33822.8hPa Calm     93% 0.0in /  0mm WeatherDisplay:10.37 W/m2 FEW
21:30 1.4 °F /  -17 °C 0.4 °F /  -17.6 °C 998.9in /  33822.8hPa ESE 3.4mph /  5.5km/h 5.6mph /  9km/h 93% 0.0in /  0mm WeatherDisplay:10.37 W/m2 FEW
21:31 1.4 °F /  -17 °C 0.4 °F /  -17.6 °C 998.9in /  33822.8hPa ESE 1.4mph /  2.3km/h 5.6mph /  9km/h 93% 0.0in /  0mm WeatherDisplay:10.37 W/m2 FEW
21:37 1.4 °F /  -17 °C 0.4 °F /  -17.6 °C 998.9in /  33822.8hPa Calm     93% 0.0in /  0mm WeatherDisplay:10.37 W/m2 FEW
21:42 1.4 °F /  -17 °C 0.4 °F /  -17.6 °C 998.9in /  33822.8hPa Calm   5.6mph /  9km/h 93% 0.0in /  0mm WeatherDisplay:10.37 W/m2 FEW
21:44 1.4 °F /  -17 °C 0.4 °F /  -17.6 °C 998.9in /  33822.8hPa ESE 3.7mph /  6km/h 5.6mph /  9km/h 93% 0.0in /  0mm WeatherDisplay:10.37 W/m2 FEW
21:49 1.4 °F /  -17 °C 0.4 °F /  -17.6 °C 998.9in /  33822.8hPa ESE 1.9mph /  3.1km/h 5.6mph /  9km/h 93% 0.0in /  0mm WeatherDisplay:10.37 W/m2 FEW
21:54 1.4 °F /  -17 °C 0.4 °F /  -17.6 °C 998.9in /  33822.8hPa NE 2.9mph /  4.7km/h 9.3mph /  15km/h 93% 0.0in /  0mm WeatherDisplay:10.37 W/m2 FEW
22:04 1.4 °F /  -17 °C 0.4 °F /  -17.6 °C 998.9in /  33822.8hPa Calm   5.6mph /  9km/h 93% 0.0in /  0mm WeatherDisplay:10.37 W/m2 FEW
22:06 1.4 °F /  -17 °C 0.4 °F /  -17.6 °C 998.9in /  33822.8hPa Calm   1.9mph /  3.1km/h 93% 0.0in /  0mm WeatherDisplay:10.37 W/m2 FEW
22:11 1.4 °F /  -17 °C 0.4 °F /  -17.6 °C 998.9in /  33822.8hPa Calm     93% 0.0in /  0mm WeatherDisplay:10.37 W/m2 FEW
22:18 1.4 °F /  -17 °C 0.4 °F /  -17.6 °C 998.5in /  33809.2hPa East 1.1mph /  1.8km/h 5.6mph /  9km/h 93% 0.0in /  0mm WeatherDisplay:10.37 W/m2 FEW
22:23 1.4 °F /  -17 °C 0.4 °F /  -17.6 °C 998.5in /  33809.2hPa East 4.0mph /  6.4km/h 9.3mph /  15km/h 93% 0.0in /  0mm WeatherDisplay:10.37 W/m2 FEW
22:28 1.4 °F /  -17 °C 0.4 °F /  -17.6 °C 998.5in /  33809.2hPa ESE 2.9mph /  4.7km/h 5.6mph /  9km/h 93% 0.0in /  0mm WeatherDisplay:10.37 W/m2 FEW
22:32 1.4 °F /  -17 °C 0.4 °F /  -17.6 °C 998.5in /  33809.2hPa Calm     93% 0.0in /  0mm WeatherDisplay:10.37 W/m2 FEW
22:38 1.4 °F /  -17 °C 0.4 °F /  -17.6 °C 998.5in /  33809.2hPa ESE 4.5mph /  7.2km/h 11.1mph /  17.9km/h 93% 0.0in /  0mm WeatherDisplay:10.37 W/m2 FEW
22:43 1.4 °F /  -17 °C 0.4 °F /  -17.6 °C 998.5in /  33809.2hPa East 0.3mph /  0.5km/h 4.8mph /  7.7km/h 93% 0.0in /  0mm WeatherDisplay:10.37 W/m2 FEW
22:48 1.4 °F /  -17 °C 0.4 °F /  -17.6 °C 998.5in /  33809.2hPa Calm     93% 0.0in /  0mm WeatherDisplay:10.37 W/m2 FEW
22:53 1.4 °F /  -17 °C 0.4 °F /  -17.6 °C 998.5in /  33809.2hPa Calm     93% 0.0in /  0mm WeatherDisplay:10.37 W/m2 FEW
22:58 1.4 °F /  -17 °C 0.4 °F /  -17.6 °C 998.5in /  33809.2hPa East 4.7mph /  7.6km/h 7.4mph /  11.9km/h 93% 0.0in /  0mm WeatherDisplay:10.37 W/m2 FEW
23:01 1.4 °F /  -17 °C 0.4 °F /  -17.6 °C 998.5in /  33809.2hPa Calm     93% 0.0in /  0mm WeatherDisplay:10.37 W/m2 FEW
23:02 1.4 °F /  -17 °C 0.4 °F /  -17.6 °C 998.5in /  33809.2hPa Calm     93% 0.0in /  0mm WeatherDisplay:10.37 W/m2 FEW
23:07 1.4 °F /  -17 °C 0.4 °F /  -17.6 °C 998.5in /  33809.2hPa East 2.7mph /  4.3km/h 5.6mph /  9km/h 93% 0.0in /  0mm WeatherDisplay:10.37 W/m2 FEW
23:12 1.4 °F /  -17 °C 0.4 °F /  -17.6 °C 998.5in /  33809.2hPa ESE 3.4mph /  5.5km/h 5.6mph /  9km/h 93% 0.0in /  0mm WeatherDisplay:10.37 W/m2 FEW
23:17 1.4 °F /  -17 °C 0.4 °F /  -17.6 °C 998.5in /  33809.2hPa ESE 7.6mph /  12.2km/h 12.9mph /  20.8km/h 93% 0.0in /  0mm WeatherDisplay:10.37 W/m2 FEW
23:22 1.3 °F /  -17.1 °C 0.3 °F /  -17.6 °C 998.5in /  33809.2hPa SSE 8.2mph /  13.2km/h 13.0mph /  20.9km/h 93% 0.0in /  0mm WeatherDisplay:10.37 W/m2 FEW
23:26 1.3 °F /  -17.1 °C 0.3 °F /  -17.6 °C 998.5in /  33809.2hPa Calm   1.9mph /  3.1km/h 93% 0.0in /  0mm WeatherDisplay:10.37 W/m2 FEW
23:30 1.3 °F /  -17.1 °C 0.3 °F /  -17.6 °C 998.5in /  33809.2hPa East 6.3mph /  10.1km/h 13.0mph /  20.9km/h 93% 0.0in /  0mm WeatherDisplay:10.37 W/m2 FEW
23:36 1.3 °F /  -17.1 °C 0.3 °F /  -17.6 °C 998.5in /  33809.2hPa SSE 2.7mph /  4.3km/h 11.1mph /  17.9km/h 93% 0.0in /  0mm WeatherDisplay:10.37 W/m2 FEW
23:41 1.3 °F /  -17.1 °C 0.3 °F /  -17.6 °C 998.5in /  33809.2hPa SE 3.9mph /  6.3km/h 14.8mph /  23.8km/h 93% 0.0in /  0mm WeatherDisplay:10.37 W/m2 FEW
23:46 1.3 °F /  -17.1 °C 0.3 °F /  -17.6 °C 998.5in /  33809.2hPa ESE 5.1mph /  8.2km/h 9.3mph /  15km/h 93% 0.0in /  0mm WeatherDisplay:10.37 W/m2 FEW
23:51 1.2 °F /  -17.1 °C 0.2 °F /  -17.7 °C 998.2in /  33799.1hPa East 2.3mph /  3.7km/h 13.0mph /  20.9km/h 93% 0.0in /  0mm WeatherDisplay:10.37 W/m2 FEW
23:56 1.2 °F /  -17.1 °C 0.2 °F /  -17.7 °C 998.5in /  33809.2hPa ESE 2.3mph /  3.7km/h 3.7mph /  6km/h 93% 0.0in /  0mm WeatherDisplay:10.37 W/m2 FEW
Tuulensuunkaari, Veikkola, Suomi
Compliments of Weather Underground - 2.75 mb